Time;durP1;ratioP1;P1;durP2;ratioP2;P2;SDS_P1;SDS_P2;PMS_P1;PMS_P2;Temp;Humidity;BMP_temperature;BMP_pressure;BME280_temperature;BME280_humidity;BME280_pressure;Samples;Min_cycle;Max_cycle;Signal;HPM_P1;HPM_P2
2024/02/23 00:01:08;;;;;;;4.15;1.20;;;;;8.60;96365.00;;;;4842892;29;20058;-67
2024/02/23 00:03:36;;;;;;;4.97;1.08;;;;;8.50;96364.00;;;;4844204;29;20566;-66
2024/02/23 00:06:03;;;;;;;2.25;0.90;;;;;8.50;96362.00;;;;4861539;29;20126;-66
2024/02/23 00:08:30;;;;;;;4.10;0.90;;;;;8.50;96369.00;;;;4845788;29;20106;-65
2024/02/23 00:10:57;;;;;;;4.72;1.05;;;;;8.50;96393.00;;;;4862667;29;20054;-65
2024/02/23 00:13:24;;;;;;;4.70;0.93;;;;;8.50;96389.00;;;;4858771;29;20081;-65
2024/02/23 00:15:51;;;;;;;4.63;1.50;;;;;8.50;96400.00;;;;4860056;29;20085;-65
2024/02/23 00:18:18;;;;;;;6.82;1.15;;;;;8.50;96402.00;;;;4863371;29;20122;-65
2024/02/23 00:20:46;;;;;;;3.35;0.90;;;;;8.50;96396.00;;;;4866464;29;20050;-66
2024/02/23 00:23:13;;;;;;;5.22;1.10;;;;;8.50;96397.00;;;;4866146;29;20061;-66
2024/02/23 00:25:39;;;;;;;5.00;1.73;;;;;8.50;96399.00;;;;4866758;29;20151;-65
2024/02/23 00:28:06;;;;;;;5.45;1.40;;;;;8.50;96402.00;;;;4866192;29;20053;-66
2024/02/23 00:30:33;;;;;;;3.97;1.25;;;;;8.40;96393.00;;;;4858951;29;20107;-65
2024/02/23 00:32:59;;;;;;;3.10;0.90;;;;;8.40;96398.00;;;;4858156;29;20500;-66
2024/02/23 00:35:26;;;;;;;3.15;0.85;;;;;8.40;96399.00;;;;4856145;29;20050;-66
2024/02/23 00:37:53;;;;;;;8.43;1.70;;;;;8.40;96408.00;;;;4874038;29;20062;-66
2024/02/23 00:40:19;;;;;;;4.63;1.08;;;;;8.30;96408.00;;;;4848942;29;20464;-66
2024/02/23 00:42:46;;;;;;;5.40;1.40;;;;;8.30;96414.00;;;;4848163;29;20049;-66
2024/02/23 00:45:13;;;;;;;5.07;1.30;;;;;8.30;96419.00;;;;4849510;29;20125;-67
2024/02/23 00:47:39;;;;;;;6.57;1.13;;;;;8.30;96416.00;;;;4855116;29;20038;-68
2024/02/23 00:50:06;;;;;;;4.47;1.30;;;;;8.30;96445.00;;;;4852754;29;20057;-68
2024/02/23 00:52:33;;;;;;;3.30;0.98;;;;;8.30;96466.00;;;;4846104;29;20038;-68
2024/02/23 00:55:00;;;;;;;4.65;1.27;;;;;7.70;96525.00;;;;4859998;29;20054;-68
2024/02/23 00:57:29;;;;;;;1.92;0.80;;;;;6.80;96517.00;;;;4844956;29;20053;-67
2024/02/23 00:59:57;;;;;;;1.40;0.80;;;;;6.30;96501.00;;;;4861230;29;20058;-67
2024/02/23 01:02:24;;;;;;;1.48;0.40;;;;;6.00;96514.00;;;;4848421;29;20045;-67
2024/02/23 01:04:56;;;;;;;0.88;0.68;;;;;5.80;96522.00;;;;4860485;29;20058;-67
2024/02/23 01:07:23;;;;;;;3.05;0.95;;;;;5.60;96518.00;;;;4845993;29;20049;-67
2024/02/23 01:09:50;;;;;;;2.20;0.60;;;;;5.50;96505.00;;;;4860152;29;20061;-67
2024/02/23 01:12:16;;;;;;;3.15;1.02;;;;;5.40;96503.00;;;;4860515;29;20475;-67
2024/02/23 01:14:43;;;;;;;1.98;0.50;;;;;5.40;96509.00;;;;4859967;29;20050;-67
2024/02/23 01:17:10;;;;;;;3.45;1.25;;;;;5.40;96503.00;;;;4860605;29;20077;-67
2024/02/23 01:19:37;;;;;;;0.90;0.50;;;;;5.40;96507.00;;;;4859823;29;20049;-67
2024/02/23 01:22:04;;;;;;;3.20;0.50;;;;;5.40;96511.00;;;;4844397;29;20129;-67
2024/02/23 01:24:31;;;;;;;0.93;0.55;;;;;5.30;96503.00;;;;4859961;29;20046;-67
2024/02/23 01:26:58;;;;;;;1.25;0.50;;;;;5.30;96489.00;;;;4860216;29;20571;-67
2024/02/23 01:29:26;;;;;;;0.47;0.40;;;;;5.30;96505.00;;;;4860336;29;20517;-67
2024/02/23 01:31:54;;;;;;;1.33;0.60;;;;;5.40;96516.00;;;;4845057;29;20129;-67
2024/02/23 01:34:21;;;;;;;2.45;1.13;;;;;5.40;96520.00;;;;4860003;29;20054;-67
2024/02/23 01:36:48;;;;;;;1.95;0.73;;;;;5.50;96523.00;;;;4860103;29;20511;-67
2024/02/23 01:39:15;;;;;;;2.92;1.00;;;;;5.60;96528.00;;;;4844255;29;20148;-67
2024/02/23 01:41:43;;;;;;;2.15;0.57;;;;;5.60;96516.00;;;;4859674;29;20079;-67
2024/02/23 01:44:11;;;;;;;1.95;0.60;;;;;5.70;96523.00;;;;4859813;29;20050;-67
2024/02/23 01:46:37;;;;;;;0.80;0.70;;;;;5.70;96518.00;;;;4859556;29;20145;-67
2024/02/23 01:49:07;;;;;;;3.17;0.80;;;;;5.70;96533.00;;;;4859871;29;20041;-67
2024/02/23 01:51:34;;;;;;;0.98;0.70;;;;;5.70;96527.00;;;;4844160;29;20053;-67
2024/02/23 01:54:02;;;;;;;1.27;0.70;;;;;5.80;96530.00;;;;4844664;29;20065;-66
2024/02/23 01:56:29;;;;;;;3.63;0.98;;;;;5.90;96538.00;;;;4859608;29;20086;-66
2024/02/23 01:58:56;;;;;;;2.80;0.80;;;;;6.00;96534.00;;;;4858697;29;20626;-66
2024/02/23 02:01:23;;;;;;;1.38;0.63;;;;;6.00;96536.00;;;;4843059;29;20050;-66
2024/02/23 02:03:49;;;;;;;2.90;0.73;;;;;6.00;96538.00;;;;4858648;29;20050;-66
2024/02/23 02:06:16;;;;;;;2.58;0.80;;;;;6.10;96542.00;;;;4858424;29;20547;-66
2024/02/23 02:08:43;;;;;;;0.60;0.60;;;;;6.10;96544.00;;;;4858610;29;20509;-66
2024/02/23 02:11:09;;;;;;;2.75;1.10;;;;;6.20;96547.00;;;;4858818;29;20086;-66
2024/02/23 02:13:36;;;;;;;3.17;0.63;;;;;6.30;96535.00;;;;4858166;29;20041;-66
2024/02/23 02:16:03;;;;;;;2.30;0.80;;;;;6.40;96535.00;;;;4858472;29;20110;-66
2024/02/23 02:18:30;;;;;;;1.45;0.70;;;;;6.40;96541.00;;;;4843062;29;20050;-66
2024/02/23 02:20:57;;;;;;;2.65;0.90;;;;;6.40;96547.00;;;;4858357;29;20054;-66
2024/02/23 02:23:26;;;;;;;1.40;0.68;;;;;6.40;96552.00;;;;4858278;29;20061;-66
2024/02/23 02:25:54;;;;;;;1.55;0.77;;;;;6.40;96546.00;;;;4857542;29;20478;-66
2024/02/23 02:28:21;;;;;;;2.63;0.80;;;;;6.40;96543.00;;;;4857996;29;20050;-66
2024/02/23 02:30:48;;;;;;;1.98;0.90;;;;;6.30;96550.00;;;;4844197;29;20078;-66
2024/02/23 02:33:15;;;;;;;3.47;0.73;;;;;6.40;96556.00;;;;4857957;29;20144;-66
2024/02/23 02:35:42;;;;;;;5.13;1.00;;;;;6.40;96544.00;;;;4858192;29;20244;-66
2024/02/23 02:38:10;;;;;;;2.78;0.63;;;;;6.50;96554.00;;;;4857980;29;20113;-66
2024/02/23 02:40:37;;;;;;;3.15;1.02;;;;;6.50;96552.00;;;;4857763;29;20053;-67
2024/02/23 02:43:04;;;;;;;1.50;0.80;;;;;6.60;96554.00;;;;4857711;29;20487;-68
2024/02/23 02:45:31;;;;;;;3.35;0.65;;;;;6.70;96552.00;;;;4857641;29;20050;-68
2024/02/23 02:48:01;;;;;;;4.80;1.33;;;;;6.70;96556.00;;;;4858278;29;20062;-68
2024/02/23 02:50:27;;;;;;;4.20;1.48;;;;;6.70;96554.00;;;;4843590;29;20046;-68
2024/02/23 02:52:54;;;;;;;3.53;0.90;;;;;6.70;96554.00;;;;4843853;29;20502;-68
2024/02/23 02:55:21;;;;;;;4.35;0.80;;;;;6.70;96558.00;;;;4858189;29;20103;-68
2024/02/23 02:57:47;;;;;;;1.25;0.55;;;;;6.70;96561.00;;;;4857526;29;20053;-68
2024/02/23 03:00:14;;;;;;;3.05;0.90;;;;;6.80;96557.00;;;;4843578;29;20048;-68
2024/02/23 03:02:41;;;;;;;3.65;1.38;;;;;6.80;96545.00;;;;4841912;29;20071;-68
2024/02/23 03:05:11;;;;;;;4.30;0.80;;;;;6.70;96568.00;;;;4843422;29;20046;-67
2024/02/23 03:07:38;;;;;;;3.58;0.73;;;;;6.60;96559.00;;;;4858866;29;20068;-67
2024/02/23 03:10:05;;;;;;;3.65;0.90;;;;;6.60;96554.00;;;;4857796;29;20110;-67
2024/02/23 03:12:32;;;;;;;3.47;1.23;;;;;6.60;96557.00;;;;4842751;29;20149;-67
2024/02/23 03:14:59;;;;;;;5.65;0.90;;;;;6.60;96554.00;;;;4842812;29;20054;-67
2024/02/23 03:17:25;;;;;;;5.75;0.80;;;;;6.60;96548.00;;;;4857800;29;20054;-66
2024/02/23 03:19:52;;;;;;;4.10;1.40;;;;;6.60;96538.00;;;;4843990;29;20049;-66
2024/02/23 03:22:19;;;;;;;3.53;1.10;;;;;6.60;96532.00;;;;4857132;29;20046;-67
2024/02/23 03:24:46;;;;;;;2.08;1.00;;;;;6.60;96537.00;;;;4857205;29;20142;-67
2024/02/23 03:27:13;;;;;;;2.60;1.00;;;;;6.50;96542.00;;;;4843126;29;20567;-68
2024/02/23 03:29:40;;;;;;;3.10;0.98;;;;;6.40;96529.00;;;;4843250;29;20061;-68
2024/02/23 03:32:07;;;;;;;4.75;0.98;;;;;6.30;96529.00;;;;4841867;29;20057;-68
2024/02/23 03:34:33;;;;;;;1.95;1.10;;;;;6.30;96518.00;;;;4857181;29;20085;-68
2024/02/23 03:37:02;;;;;;;2.80;0.80;;;;;6.20;96519.00;;;;4843143;29;20551;-66
2024/02/23 03:39:29;;;;;;;2.60;0.90;;;;;6.20;96522.00;;;;4842890;29;20057;-69
2024/02/23 03:41:55;;;;;;;7.55;1.23;;;;;6.20;96519.00;;;;4842667;29;20095;-68
2024/02/23 03:44:22;;;;;;;4.40;1.20;;;;;6.20;96520.00;;;;4857142;29;20090;-69
2024/02/23 03:46:49;;;;;;;3.08;1.00;;;;;6.20;96510.00;;;;4842706;29;20046;-68
2024/02/23 03:49:16;;;;;;;2.95;1.20;;;;;6.10;96519.00;;;;4842905;29;20491;-68
2024/02/23 03:51:43;;;;;;;3.00;0.93;;;;;6.10;96516.00;;;;4842711;29;20050;-68
2024/02/23 03:54:09;;;;;;;3.67;1.02;;;;;6.10;96515.00;;;;4842580;29;20510;-68
2024/02/23 03:56:42;;;;;;;2.22;0.93;;;;;6.10;96527.00;;;;4841422;29;20062;-66
2024/02/23 03:59:09;;;;;;;4.28;1.13;;;;;6.10;96523.00;;;;4857122;29;20050;-66
2024/02/23 04:01:37;;;;;;;2.75;1.00;;;;;6.10;96518.00;;;;4841526;29;20045;-66
2024/02/23 04:04:05;;;;;;;2.25;0.90;;;;;6.10;96516.00;;;;4842680;29;20046;-66
2024/02/23 04:06:32;;;;;;;2.92;1.00;;;;;6.00;96522.00;;;;4842548;29;20050;-67
2024/02/23 04:08:58;;;;;;;4.82;1.30;;;;;6.10;96510.00;;;;4841505;29;20053;-68
2024/02/23 04:11:25;;;;;;;4.80;1.27;;;;;6.00;96509.00;;;;4841358;29;20064;-68
2024/02/23 04:13:51;;;;;;;3.85;0.93;;;;;6.00;96525.00;;;;4856722;29;20049;-68
2024/02/23 04:16:23;;;;;;;2.67;1.08;;;;;6.00;96511.00;;;;4841665;29;20061;-68
2024/02/23 04:18:50;;;;;;;3.83;0.90;;;;;6.00;96508.00;;;;4841272;29;20101;-68
2024/02/23 04:21:17;;;;;;;3.20;0.90;;;;;6.00;96505.00;;;;4857703;29;20066;-68
2024/02/23 04:23:43;;;;;;;4.03;1.10;;;;;6.10;96506.00;;;;4857700;29;20219;-68
2024/02/23 04:26:10;;;;;;;3.03;1.48;;;;;6.10;96502.00;;;;4842492;29;20053;-68
2024/02/23 04:28:40;;;;;;;3.80;0.98;;;;;6.10;96499.00;;;;4856781;29;20054;-68
2024/02/23 04:31:10;;;;;;;3.10;1.00;;;;;6.10;96496.00;;;;4856449;29;20485;-68
2024/02/23 04:33:37;;;;;;;3.60;0.90;;;;;6.10;96509.00;;;;4842535;29;20046;-68
2024/02/23 04:36:05;;;;;;;2.50;1.10;;;;;6.10;96502.00;;;;4856655;29;20085;-68
2024/02/23 04:38:32;;;;;;;3.65;0.95;;;;;6.10;96501.00;;;;4856401;29;20054;-68
2024/02/23 04:41:04;;;;;;;3.28;1.08;;;;;6.10;96510.00;;;;4841108;29;20146;-68
2024/02/23 04:43:31;;;;;;;5.03;1.10;;;;;6.10;96505.00;;;;4842345;29;20098;-68
2024/02/23 04:45:58;;;;;;;2.72;1.35;;;;;6.20;96511.00;;;;4842227;29;20046;-68
2024/02/23 04:48:25;;;;;;;2.83;0.98;;;;;6.10;96502.00;;;;4856316;29;20054;-68
2024/02/23 04:50:51;;;;;;;3.20;1.10;;;;;6.10;96507.00;;;;4858901;29;20056;-68
2024/02/23 04:53:19;;;;;;;1.88;1.00;;;;;6.10;96501.00;;;;4844586;29;20129;-66
2024/02/23 04:55:46;;;;;;;4.78;1.25;;;;;6.00;96506.00;;;;4860903;29;20111;-66
2024/02/23 04:58:12;;;;;;;5.60;1.10;;;;;6.00;96503.00;;;;4859594;29;20086;-66
2024/02/23 05:00:39;;;;;;;6.65;1.25;;;;;6.00;96495.00;;;;4828964;29;20081;-66
2024/02/23 05:03:06;;;;;;;4.63;1.27;;;;;5.90;96501.00;;;;4859482;29;20140;-67
2024/02/23 05:05:39;;;;;;;3.63;0.95;;;;;6.00;96505.00;;;;4859592;29;20058;-66
2024/02/23 05:08:06;;;;;;;5.05;1.50;;;;;6.00;96506.00;;;;4844441;29;20149;-66
2024/02/23 05:10:33;;;;;;;7.90;1.55;;;;;6.00;96506.00;;;;4845677;29;20560;-66
2024/02/23 05:12:59;;;;;;;5.80;1.63;;;;;6.00;96504.00;;;;4859402;29;20456;-66
2024/02/23 05:15:26;;;;;;;5.10;1.33;;;;;5.90;96498.00;;;;4859336;29;20061;-66
2024/02/23 05:17:52;;;;;;;4.90;1.35;;;;;5.90;96494.00;;;;4859297;29;20054;-66
2024/02/23 05:20:19;;;;;;;4.28;0.93;;;;;6.00;96493.00;;;;4843852;29;20058;-66
2024/02/23 05:22:46;;;;;;;2.90;0.90;;;;;5.90;96502.00;;;;4845493;29;20134;-66
2024/02/23 05:25:12;;;;;;;4.80;1.27;;;;;5.90;96502.00;;;;4845422;29;20133;-66
2024/02/23 05:27:39;;;;;;;6.03;1.15;;;;;6.00;96491.00;;;;4844887;29;20061;-66
2024/02/23 05:30:06;;;;;;;4.68;1.35;;;;;6.00;96492.00;;;;4859119;29;20166;-66
2024/02/23 05:32:33;;;;;;;2.70;1.10;;;;;6.10;96486.00;;;;4859372;29;20518;-66
2024/02/23 05:35:00;;;;;;;3.67;1.00;;;;;6.10;96480.00;;;;4844883;29;20058;-66
2024/02/23 05:37:27;;;;;;;7.43;1.52;;;;;6.10;96476.00;;;;4845028;29;20388;-66
2024/02/23 05:39:53;;;;;;;3.78;1.17;;;;;6.10;96489.00;;;;4858731;29;20106;-66
2024/02/23 05:42:20;;;;;;;2.40;1.10;;;;;6.10;96491.00;;;;4844677;29;20099;-66
2024/02/23 05:44:48;;;;;;;2.33;1.10;;;;;6.10;96498.00;;;;4844942;29;20078;-66
2024/02/23 05:47:15;;;;;;;6.35;1.45;;;;;6.00;96503.00;;;;4858802;29;20106;-66
2024/02/23 05:49:42;;;;;;;3.13;1.40;;;;;6.00;96499.00;;;;4858657;29;20050;-66
2024/02/23 05:52:09;;;;;;;4.65;1.10;;;;;6.00;96500.00;;;;4858662;29;20144;-65
2024/02/23 05:54:36;;;;;;;3.35;0.68;;;;;6.00;96508.00;;;;4858778;29;20113;-65
2024/02/23 05:57:03;;;;;;;4.38;1.30;;;;;6.00;96514.00;;;;4843576;29;20054;-66
2024/02/23 05:59:29;;;;;;;2.22;1.40;;;;;6.10;96517.00;;;;4844272;29;20136;-66
2024/02/23 06:01:59;;;;;;;4.25;1.13;;;;;6.10;96511.00;;;;4843527;29;20124;-66
2024/02/23 06:04:26;;;;;;;7.55;1.80;;;;;6.10;96519.00;;;;4844983;29;20060;-66
2024/02/23 06:06:53;;;;;;;4.35;1.20;;;;;6.20;96524.00;;;;4858791;29;20090;-66
2024/02/23 06:09:21;;;;;;;5.70;1.70;;;;;6.10;96521.00;;;;4842960;29;20077;-66
2024/02/23 06:11:47;;;;;;;3.72;1.40;;;;;6.20;96516.00;;;;4843324;29;20041;-66
2024/02/23 06:14:14;;;;;;;5.88;1.40;;;;;6.10;96521.00;;;;4843800;29;20050;-66
2024/02/23 06:16:40;;;;;;;6.88;1.90;;;;;6.10;96509.00;;;;4858674;29;20054;-66
2024/02/23 06:19:08;;;;;;;5.40;1.08;;;;;6.00;96509.00;;;;4844894;29;20141;-66
2024/02/23 06:21:36;;;;;;;5.07;1.60;;;;;5.90;96516.00;;;;4858807;29;20061;-66
2024/02/23 06:24:04;;;;;;;9.77;1.90;;;;;5.90;96503.00;;;;4858393;29;20038;-66
2024/02/23 06:26:31;;;;;;;4.75;1.77;;;;;5.90;96508.00;;;;4858547;29;20144;-66
2024/02/23 06:28:58;;;;;;;4.65;1.20;;;;;5.90;96510.00;;;;4858144;29;20058;-66
2024/02/23 06:31:25;;;;;;;3.28;1.70;;;;;5.80;96510.00;;;;4858744;29;20054;-66
2024/02/23 06:33:52;;;;;;;4.32;1.40;;;;;5.80;96514.00;;;;4844021;29;20548;-66
2024/02/23 06:36:19;;;;;;;2.90;1.08;;;;;5.80;96509.00;;;;4858280;29;20058;-66
2024/02/23 06:38:45;;;;;;;4.97;1.55;;;;;5.80;96518.00;;;;4857789;29;20050;-66
2024/02/23 06:41:12;;;;;;;6.10;1.50;;;;;5.80;96512.00;;;;4843508;29;20109;-66
2024/02/23 06:43:39;;;;;;;6.60;2.05;;;;;5.70;96507.00;;;;4858087;29;20081;-66
2024/02/23 06:46:09;;;;;;;4.32;1.20;;;;;5.70;96511.00;;;;4842883;29;20572;-66
2024/02/23 06:48:36;;;;;;;5.85;1.20;;;;;5.70;96504.00;;;;4857922;29;20129;-66
2024/02/23 06:51:05;;;;;;;3.45;1.38;;;;;5.70;96514.00;;;;4858086;29;20499;-67
2024/02/23 06:53:31;;;;;;;9.73;2.45;;;;;5.60;96511.00;;;;4858078;29;20511;-66
2024/02/23 06:55:59;;;;;;;8.32;1.90;;;;;5.60;96522.00;;;;4843636;29;20054;-66
2024/02/23 06:58:26;;;;;;;9.70;1.98;;;;;5.60;96529.00;;;;4843331;29;20416;-66
2024/02/23 07:00:52;;;;;;;7.65;1.98;;;;;5.70;96529.00;;;;4842167;29;20054;-66
2024/02/23 07:03:19;;;;;;;6.32;1.70;;;;;5.70;96519.00;;;;4843499;29;20053;-66
2024/02/23 07:05:47;;;;;;;4.25;1.52;;;;;5.70;96525.00;;;;4857450;29;20061;-66
2024/02/23 07:08:14;;;;;;;4.43;1.40;;;;;5.80;96528.00;;;;4843711;29;20046;-66
2024/02/23 07:10:40;;;;;;;5.90;1.77;;;;;5.90;96531.00;;;;4844062;29;20046;-66
2024/02/23 07:13:07;;;;;;;6.95;1.73;;;;;6.00;96539.00;;;;4843417;29;20054;-66
2024/02/23 07:15:35;;;;;;;7.35;2.13;;;;;6.00;96540.00;;;;4843234;29;20050;-66
2024/02/23 07:18:02;;;;;;;6.40;2.65;;;;;6.10;96545.00;;;;4857625;29;20103;-66
2024/02/23 07:20:29;;;;;;;5.43;2.53;;;;;6.20;96542.00;;;;4843702;29;20507;-66
2024/02/23 07:22:56;;;;;;;9.65;2.90;;;;;6.30;96544.00;;;;4841958;29;20058;-66
2024/02/23 07:25:22;;;;;;;7.90;2.50;;;;;6.50;96538.00;;;;4842960;29;20069;-66
2024/02/23 07:27:49;;;;;;;12.15;2.80;;;;;6.60;96542.00;;;;4843156;29;20050;-66
2024/02/23 07:30:16;;;;;;;12.38;2.85;;;;;6.60;96548.00;;;;4857524;29;20144;-66
2024/02/23 07:32:46;;;;;;;11.05;2.75;;;;;6.60;96553.00;;;;4843142;29;20088;-67
2024/02/23 07:35:18;;;;;;;8.75;2.05;;;;;6.70;96563.00;;;;4843978;29;20576;-66
2024/02/23 07:37:46;;;;;;;12.77;2.78;;;;;6.80;96553.00;;;;4843009;29;20077;-66
2024/02/23 07:40:12;;;;;;;9.38;3.15;;;;;6.90;96556.00;;;;4844048;29;20049;-66
2024/02/23 07:42:39;;;;;;;9.85;2.90;;;;;6.90;96560.00;;;;4843659;29;20062;-66
2024/02/23 07:45:07;;;;;;;10.63;2.97;;;;;6.90;96560.00;;;;4843798;29;20074;-65
2024/02/23 07:47:33;;;;;;;10.48;1.90;;;;;7.00;96564.00;;;;4842002;29;20053;-66
2024/02/23 07:50:00;;;;;;;10.82;2.63;;;;;7.00;96565.00;;;;4843258;29;20070;-65
2024/02/23 07:52:27;;;;;;;10.55;3.17;;;;;7.20;96577.00;;;;4842768;29;20145;-65
2024/02/23 07:54:54;;;;;;;12.80;3.72;;;;;7.40;96571.00;;;;4857701;29;20050;-65
2024/02/23 07:57:21;;;;;;;7.82;2.50;;;;;7.40;96586.00;;;;4857132;29;20525;-65
2024/02/23 07:59:48;;;;;;;7.82;3.92;;;;;7.40;96589.00;;;;4857231;29;20050;-65
2024/02/23 08:02:15;;;;;;;8.38;1.92;;;;;7.50;96584.00;;;;4842798;29;20132;-65
2024/02/23 08:04:42;;;;;;;9.10;2.20;;;;;7.60;96582.00;;;;4842778;29;20042;-65
2024/02/23 08:07:10;;;;;;;11.05;2.78;;;;;7.70;96588.00;;;;4842881;29;20056;-65
2024/02/23 08:09:37;;;;;;;7.50;2.28;;;;;7.70;96590.00;;;;4842710;29;20056;-66
2024/02/23 08:12:04;;;;;;;10.82;2.58;;;;;7.80;96591.00;;;;4842467;29;20057;-65
2024/02/23 08:14:30;;;;;;;9.23;1.90;;;;;7.90;96597.00;;;;4856627;29;20042;-65
2024/02/23 08:16:57;;;;;;;12.20;2.92;;;;;8.10;96602.00;;;;4843254;29;20110;-64
2024/02/23 08:19:24;;;;;;;12.00;2.67;;;;;8.10;96604.00;;;;4856526;29;20054;-65
2024/02/23 08:21:50;;;;;;;9.13;2.30;;;;;8.20;96608.00;;;;4842318;29;20046;-65
2024/02/23 08:24:17;;;;;;;9.75;2.45;;;;;8.20;96597.00;;;;4857072;29;20513;-65
2024/02/23 08:26:44;;;;;;;9.05;2.58;;;;;8.30;96603.00;;;;4846035;29;20125;-65
2024/02/23 08:29:11;;;;;;;10.85;2.60;;;;;8.30;96615.00;;;;4846248;29;20046;-66
2024/02/23 08:31:37;;;;;;;8.30;3.03;;;;;8.40;96605.00;;;;4860226;29;20066;-66
2024/02/23 08:34:08;;;;;;;8.77;2.88;;;;;8.50;96601.00;;;;4846059;29;20088;-67
2024/02/23 08:36:35;;;;;;;7.70;2.45;;;;;8.60;96604.00;;;;4860042;29;20058;-67
2024/02/23 08:39:02;;;;;;;10.45;2.67;;;;;8.80;96611.00;;;;4860143;29;20110;-67
2024/02/23 08:41:30;;;;;;;12.25;2.97;;;;;8.80;96615.00;;;;4846348;29;20081;-69
2024/02/23 08:43:57;;;;;;;6.55;2.13;;;;;8.80;96610.00;;;;4859959;29;20053;-68
2024/02/23 08:46:23;;;;;;;8.80;2.53;;;;;8.80;96613.00;;;;4845856;29;20050;-69
2024/02/23 08:48:50;;;;;;;11.82;2.20;;;;;8.80;96606.00;;;;4845680;29;20503;-69
2024/02/23 08:51:17;;;;;;;7.78;2.00;;;;;8.80;96617.00;;;;4845532;29;20077;-68
2024/02/23 08:53:43;;;;;;;7.95;1.92;;;;;8.80;96622.00;;;;4859909;29;20053;-68
2024/02/23 08:56:12;;;;;;;9.07;2.03;;;;;8.90;96618.00;;;;4860835;29;20103;-68
2024/02/23 08:58:38;;;;;;;9.43;2.10;;;;;9.00;96629.00;;;;4845518;29;20427;-68
2024/02/23 09:01:05;;;;;;;11.23;2.25;;;;;8.90;96619.00;;;;4859526;29;20054;-68
2024/02/23 09:03:32;;;;;;;9.98;1.73;;;;;8.80;96617.00;;;;4859342;29;20057;-68
2024/02/23 09:05:58;;;;;;;4.50;1.25;;;;;8.80;96603.00;;;;4859508;29;20048;-68
2024/02/23 09:08:25;;;;;;;8.20;1.80;;;;;8.70;96599.00;;;;4859572;29;20050;-68
2024/02/23 09:10:52;;;;;;;4.22;1.58;;;;;8.80;96594.00;;;;4859262;29;20057;-68
2024/02/23 09:13:19;;;;;;;5.07;1.50;;;;;9.00;96597.00;;;;4859269;29;20064;-68
2024/02/23 09:15:46;;;;;;;3.58;1.90;;;;;9.10;96600.00;;;;4859824;29;20046;-68
2024/02/23 09:18:13;;;;;;;6.53;1.60;;;;;9.40;96602.00;;;;4859503;29;20106;-68
2024/02/23 09:20:39;;;;;;;7.03;1.73;;;;;9.40;96596.00;;;;4845238;29;20061;-68
2024/02/23 09:23:06;;;;;;;4.78;1.88;;;;;9.30;96593.00;;;;4859233;29;20050;-68
2024/02/23 09:25:32;;;;;;;7.47;1.40;;;;;9.40;96583.00;;;;4859051;29;20054;-68
2024/02/23 09:27:59;;;;;;;9.40;1.70;;;;;9.50;96581.00;;;;4845136;29;20500;-68
2024/02/23 09:30:26;;;;;;;5.90;1.60;;;;;9.50;96593.00;;;;4859096;29;20088;-68
2024/02/23 09:32:52;;;;;;;10.35;2.17;;;;;9.60;96595.00;;;;4843623;29;20084;-68
2024/02/23 09:35:19;;;;;;;4.40;1.33;;;;;9.70;96597.00;;;;4858876;29;20057;-68
2024/02/23 09:37:46;;;;;;;6.95;1.83;;;;;9.70;96590.00;;;;4843748;29;20060;-68
2024/02/23 09:40:15;;;;;;;6.15;1.80;;;;;9.70;96604.00;;;;4859143;29;20140;-68
2024/02/23 09:42:41;;;;;;;6.72;1.50;;;;;9.70;96599.00;;;;4844937;29;20080;-69
2024/02/23 09:45:11;;;;;;;8.07;1.35;;;;;9.70;96604.00;;;;4844709;29;20081;-69
2024/02/23 09:47:38;;;;;;;9.93;1.75;;;;;9.80;96604.00;;;;4845533;29;20053;-68
2024/02/23 09:50:06;;;;;;;4.60;1.63;;;;;9.70;96619.00;;;;4858753;29;20054;-69
2024/02/23 09:52:33;;;;;;;4.07;1.45;;;;;9.60;96604.00;;;;4859035;29;20054;-68
2024/02/23 09:55:00;;;;;;;5.38;1.65;;;;;9.60;96598.00;;;;4845406;29;20050;-68
2024/02/23 09:57:27;;;;;;;6.43;1.40;;;;;9.60;96600.00;;;;4843318;29;20085;-68
2024/02/23 09:59:54;;;;;;;6.05;1.70;;;;;9.80;96591.00;;;;4844904;29;20053;-68
2024/02/23 10:02:21;;;;;;;5.32;1.10;;;;;9.90;96599.00;;;;4859408;29;20132;-68
2024/02/23 10:04:50;;;;;;;5.05;1.50;;;;;9.80;96594.00;;;;4858781;29;20070;-68
2024/02/23 10:07:17;;;;;;;6.72;1.80;;;;;10.00;96600.00;;;;4843127;29;20136;-68
2024/02/23 10:09:44;;;;;;;7.00;1.63;;;;;10.00;96603.00;;;;4843450;29;20535;-68
2024/02/23 10:12:11;;;;;;;4.35;1.30;;;;;10.00;96596.00;;;;4858432;29;20049;-69
2024/02/23 10:14:38;;;;;;;4.25;1.50;;;;;9.90;96589.00;;;;4858351;29;20049;-69
2024/02/23 10:17:06;;;;;;;5.82;1.70;;;;;9.90;96594.00;;;;4858575;29;20498;-69
2024/02/23 10:19:33;;;;;;;6.65;1.67;;;;;9.90;96595.00;;;;4858543;29;20122;-69
2024/02/23 10:22:00;;;;;;;5.10;1.30;;;;;10.00;96590.00;;;;4858072;29;20079;-69
2024/02/23 10:24:27;;;;;;;6.53;1.65;;;;;10.00;96588.00;;;;4858526;29;20145;-68
2024/02/23 10:26:55;;;;;;;3.10;1.23;;;;;10.00;96595.00;;;;4843027;29;20468;-68
2024/02/23 10:29:21;;;;;;;6.88;1.70;;;;;9.80;96600.00;;;;4857962;29;20073;-68
2024/02/23 10:31:52;;;;;;;4.38;1.27;;;;;9.50;96596.00;;;;4858107;29;20062;-68
2024/02/23 10:34:20;;;;;;;4.10;1.27;;;;;9.10;96599.00;;;;4858530;29;20488;-68
2024/02/23 10:36:47;;;;;;;4.60;1.25;;;;;8.90;96604.00;;;;4857975;29;20075;-68
2024/02/23 10:39:18;;;;;;;6.75;1.35;;;;;8.90;96594.00;;;;4844105;29;20052;-68
2024/02/23 10:42:02;;;;;;;4.47;1.70;;;;;8.90;96592.00;;;;4843973;29;20053;-68
2024/02/23 10:44:30;;;;;;;4.03;1.17;;;;;8.60;96592.00;;;;4843513;29;20046;-69
2024/02/23 10:46:59;;;;;;;7.30;2.05;;;;;8.40;96583.00;;;;4857296;29;20049;-68
2024/02/23 10:49:27;;;;;;;7.25;1.70;;;;;8.40;96583.00;;;;4843624;29;20049;-66
2024/02/23 10:51:54;;;;;;;5.88;1.73;;;;;8.40;96584.00;;;;4844161;29;20048;-67
2024/02/23 10:54:22;;;;;;;6.30;1.35;;;;;8.50;96585.00;;;;4844202;29;20121;-66
2024/02/23 10:56:50;;;;;;;7.53;1.70;;;;;8.50;96591.00;;;;4858779;29;20054;-66
2024/02/23 10:59:18;;;;;;;6.32;1.67;;;;;8.70;96580.00;;;;4842589;29;20526;-66
2024/02/23 11:01:51;;;;;;;11.50;2.08;;;;;9.10;96584.00;;;;4858030;29;20061;-67
2024/02/23 11:04:20;;;;;;;5.40;1.77;;;;;9.40;96576.00;;;;4843483;29;20488;-67
2024/02/23 11:06:58;;;;;;;6.68;1.75;;;;;9.80;96581.00;;;;4857876;29;20054;-66
2024/02/23 11:09:26;;;;;;;5.57;1.80;;;;;10.00;96579.00;;;;4843774;29;20098;-66
2024/02/23 11:11:56;;;;;;;7.07;1.85;;;;;10.00;96575.00;;;;4843896;29;20137;-66
2024/02/23 11:14:38;;;;;;;5.97;1.70;;;;;10.00;96570.00;;;;4843475;29;20050;-66
2024/02/23 11:17:05;;;;;;;5.68;1.88;;;;;10.00;96572.00;;;;4843603;29;20054;-66
2024/02/23 11:19:37;;;;;;;8.57;1.60;;;;;10.00;96579.00;;;;4843738;29;20461;-66
2024/02/23 11:22:04;;;;;;;6.40;2.10;;;;;9.90;96576.00;;;;4843351;29;20132;-66
2024/02/23 11:24:33;;;;;;;4.85;1.80;;;;;9.80;96576.00;;;;4843285;29;20174;-66
2024/02/23 11:27:07;;;;;;;7.18;2.38;;;;;9.80;96586.00;;;;4843536;29;20133;-66
2024/02/23 11:29:36;;;;;;;7.70;1.80;;;;;9.80;96575.00;;;;4843199;29;20089;-66
2024/02/23 11:32:04;;;;;;;8.85;1.55;;;;;9.80;96581.00;;;;4842995;29;20140;-66
2024/02/23 11:34:31;;;;;;;7.05;2.00;;;;;9.90;96582.00;;;;4842937;29;20057;-66
2024/02/23 11:37:06;;;;;;;6.20;1.58;;;;;10.00;96591.00;;;;4842871;29;20046;-66
2024/02/23 11:39:35;;;;;;;7.97;1.25;;;;;10.00;96582.00;;;;4842944;29;20164;-65
2024/02/23 11:42:02;;;;;;;6.10;1.23;;;;;10.00;96580.00;;;;4842575;29;20068;-67
2024/02/23 11:44:28;;;;;;;4.78;1.20;;;;;10.00;96569.00;;;;4842901;29;20487;-68
2024/02/23 11:46:55;;;;;;;3.35;1.30;;;;;10.00;96565.00;;;;4841416;29;20053;-68
2024/02/23 11:49:29;;;;;;;5.47;1.30;;;;;10.00;96563.00;;;;4841372;29;20054;-68
2024/02/23 11:51:56;;;;;;;6.65;1.58;;;;;10.00;96560.00;;;;4856488;29;20149;-68
2024/02/23 11:54:23;;;;;;;2.47;1.20;;;;;10.00;96577.00;;;;4857021;29;20046;-68
2024/02/23 11:56:49;;;;;;;4.47;1.17;;;;;9.90;96564.00;;;;4856741;29;20052;-68
2024/02/23 11:59:16;;;;;;;5.28;1.83;;;;;10.00;96565.00;;;;4843476;29;20058;-68
2024/02/23 12:01:43;;;;;;;5.40;1.25;;;;;10.20;96573.00;;;;4846758;29;20050;-68
2024/02/23 12:04:09;;;;;;;6.85;1.55;;;;;10.20;96562.00;;;;4860315;29;20495;-68
2024/02/23 12:06:36;;;;;;;5.63;1.38;;;;;10.30;96575.00;;;;4846305;29;20110;-68
2024/02/23 12:09:04;;;;;;;3.58;1.90;;;;;10.30;96568.00;;;;4860658;29;20074;-68
2024/02/23 12:11:31;;;;;;;2.63;1.15;;;;;10.20;96571.00;;;;4846019;29;20058;-68
2024/02/23 12:13:58;;;;;;;5.70;1.40;;;;;10.20;96559.00;;;;4860419;29;20122;-68
2024/02/23 12:16:26;;;;;;;5.90;1.60;;;;;10.30;96548.00;;;;4860150;29;20057;-67
2024/02/23 12:18:56;;;;;;;3.33;1.40;;;;;10.50;96564.00;;;;4845287;29;20083;-66
2024/02/23 12:21:24;;;;;;;3.83;1.73;;;;;10.60;96556.00;;;;4845963;29;20137;-66
2024/02/23 12:23:51;;;;;;;4.30;1.60;;;;;10.40;96562.00;;;;4845307;29;20065;-66
2024/02/23 12:26:18;;;;;;;5.53;1.45;;;;;10.50;96558.00;;;;4846418;29;20085;-66